Time;durP1;ratioP1;P1;durP2;ratioP2;P2;SDS_P1;SDS_P2;PMS_P1;PMS_P2;Temp;Humidity;BMP_temperature;BMP_pressure;BME280_temperature;BME280_humidity;BME280_pressure;Samples;Min_cycle;Max_cycle;Signal;HPM_P1;HPM_P2
2022/06/26 00:00:21;;;;;;;22.63;21.17;;;23.80;99.90;;;;;;6215226;23;20432;-79
2022/06/26 00:02:48;;;;;;;25.90;23.90;;;23.80;99.90;;;;;;6222095;23;20436;-89
2022/06/26 00:05:15;;;;;;;28.37;26.30;;;23.80;99.90;;;;;;6223377;23;20435;-88
2022/06/26 00:07:42;;;;;;;22.67;21.07;;;23.80;99.90;;;;;;6222795;23;20439;-89
2022/06/26 00:10:10;;;;;;;25.30;23.60;;;23.80;99.90;;;;;;6221435;23;20432;-89
2022/06/26 00:12:41;;;;;;;30.43;28.20;;;23.80;99.90;;;;;;6222684;23;20434;-89
2022/06/26 00:15:10;;;;;;;27.97;25.87;;;23.80;99.90;;;;;;6220178;23;20439;-88
2022/06/26 00:17:37;;;;;;;30.80;28.60;;;23.80;99.90;;;;;;6216410;23;20424;-89
2022/06/26 00:20:05;;;;;;;29.60;27.50;;;23.80;99.90;;;;;;6220223;23;20460;-89
2022/06/26 00:22:33;;;;;;;32.17;29.60;;;23.80;99.90;;;;;;6217280;23;20470;-80
2022/06/26 00:25:00;;;;;;;30.00;27.77;;;23.80;99.90;;;;;;6217909;23;20442;-80
2022/06/26 00:27:27;;;;;;;27.77;25.67;;;23.70;99.90;;;;;;6226625;23;20440;-89
2022/06/26 00:29:56;;;;;;;24.67;22.87;;;23.70;99.90;;;;;;6229380;23;20424;-89
2022/06/26 00:32:24;;;;;;;28.13;26.03;;;23.70;99.90;;;;;;6218565;23;20436;-89
2022/06/26 00:34:51;;;;;;;23.13;21.13;;;23.70;99.90;;;;;;6229319;23;20436;-89
2022/06/26 00:37:18;;;;;;;24.73;22.83;;;23.70;99.90;;;;;;6228649;23;20450;-89
2022/06/26 00:39:45;;;;;;;22.90;21.30;;;23.70;99.90;;;;;;6226239;23;20431;-89
2022/06/26 00:42:12;;;;;;;24.00;22.20;;;23.70;99.90;;;;;;6223531;23;20796;-89
2022/06/26 00:44:39;;;;;;;26.00;24.20;;;23.70;99.90;;;;;;6217136;23;20431;-89
2022/06/26 00:47:07;;;;;;;23.57;21.97;;;23.70;99.90;;;;;;6217231;23;20432;-90
2022/06/26 00:49:34;;;;;;;23.47;21.63;;;23.70;99.90;;;;;;6219043;23;20464;-89
2022/06/26 00:52:03;;;;;;;23.37;21.77;;;23.70;99.90;;;;;;6217217;23;20794;-89
2022/06/26 00:54:31;;;;;;;22.93;21.33;;;23.70;99.90;;;;;;6220012;23;20459;-90
2022/06/26 00:56:59;;;;;;;23.00;21.30;;;23.70;99.90;;;;;;6219778;23;20857;-89
2022/06/26 00:59:26;;;;;;;21.23;19.73;;;23.70;99.90;;;;;;6219220;23;20466;-90
2022/06/26 01:01:53;;;;;;;20.00;18.70;;;23.70;99.90;;;;;;6217065;23;20460;-89
2022/06/26 01:04:24;;;;;;;21.27;19.77;;;23.70;99.90;;;;;;6218566;23;20439;-88
2022/06/26 01:06:53;;;;;;;20.80;19.40;;;23.70;99.90;;;;;;6218129;23;20436;-90
2022/06/26 01:09:20;;;;;;;20.87;19.43;;;23.60;99.90;;;;;;6218857;23;20502;-89
2022/06/26 01:11:48;;;;;;;22.30;20.60;;;23.60;99.90;;;;;;6218439;23;20427;-90
2022/06/26 01:14:15;;;;;;;23.87;22.07;;;23.60;99.90;;;;;;6218952;23;20493;-79
2022/06/26 01:16:43;;;;;;;20.57;19.17;;;23.60;99.90;;;;;;6214266;23;20436;-80
2022/06/26 01:19:11;;;;;;;22.17;20.53;;;23.60;99.90;;;;;;6218891;23;20899;-80
2022/06/26 01:21:39;;;;;;;22.10;20.47;;;23.60;99.90;;;;;;6234578;23;20432;-89
2022/06/26 01:24:08;;;;;;;21.80;20.23;;;23.60;99.90;;;;;;6228774;23;20436;-89
2022/06/26 01:26:36;;;;;;;21.30;19.70;;;23.60;99.90;;;;;;6229643;23;20729;-89
2022/06/26 01:29:03;;;;;;;21.23;19.63;;;23.60;99.90;;;;;;6217505;23;20506;-90
2022/06/26 01:31:32;;;;;;;22.00;20.20;;;23.50;99.90;;;;;;6218603;23;20439;-78
2022/06/26 01:33:59;;;;;;;20.77;19.37;;;23.50;99.90;;;;;;6217263;23;20514;-79
2022/06/26 01:36:27;;;;;;;20.37;18.97;;;23.50;99.90;;;;;;6218854;23;20471;-89
2022/06/26 01:38:54;;;;;;;21.80;20.20;;;23.50;99.90;;;;;;6217312;23;20464;-78
2022/06/26 01:41:22;;;;;;;22.00;20.30;;;23.50;99.90;;;;;;6219306;23;20439;-88
2022/06/26 01:43:51;;;;;;;22.13;20.60;;;23.50;99.90;;;;;;6218742;23;20498;-79
2022/06/26 01:46:19;;;;;;;21.70;20.10;;;23.50;99.90;;;;;;6217201;23;20451;-79
2022/06/26 01:48:46;;;;;;;22.20;20.70;;;23.50;99.90;;;;;;6201996;23;20467;-78
2022/06/26 01:51:13;;;;;;;20.77;19.27;;;23.50;99.90;;;;;;6217121;23;20436;-79
2022/06/26 01:53:40;;;;;;;19.37;18.17;;;23.50;99.90;;;;;;6217981;23;20514;-79
2022/06/26 01:56:07;;;;;;;21.23;19.53;;;23.50;99.90;;;;;;6217033;23;20478;-79
2022/06/26 01:58:36;;;;;;;21.20;19.60;;;23.50;99.90;;;;;;6218103;23;20804;-88
2022/06/26 02:01:05;;;;;;;20.50;19.03;;;23.50;99.90;;;;;;6217937;23;20510;-88
2022/06/26 02:03:32;;;;;;;21.47;19.97;;;23.50;99.90;;;;;;6218528;23;20436;-79
2022/06/26 02:05:59;;;;;;;20.10;18.70;;;23.40;99.90;;;;;;6216931;23;20717;-88
2022/06/26 02:08:26;;;;;;;18.90;17.50;;;23.40;99.90;;;;;;6217956;23;20959;-89
2022/06/26 02:13:40;;;;;;;21.17;19.70;;;23.40;99.90;;;;;;6217874;23;20439;-80
2022/06/26 02:16:10;;;;;;;20.20;18.80;;;23.40;99.90;;;;;;6217730;23;20461;-88
2022/06/26 02:18:37;;;;;;;20.17;18.77;;;23.40;99.90;;;;;;6216879;23;20938;-79
2022/06/26 02:21:07;;;;;;;20.00;18.60;;;23.40;99.90;;;;;;6217403;23;20840;-89
2022/06/26 02:23:34;;;;;;;23.00;21.40;;;23.40;99.90;;;;;;6203484;23;20436;-89
2022/06/26 02:26:02;;;;;;;20.87;19.17;;;23.40;99.90;;;;;;6216282;23;20517;-79
2022/06/26 02:28:29;;;;;;;19.40;17.97;;;23.40;99.90;;;;;;6226978;23;20543;-79
2022/06/26 02:31:01;;;;;;;20.80;19.40;;;23.40;99.90;;;;;;6222909;23;20474;-88
2022/06/26 02:33:28;;;;;;;19.77;18.37;;;23.40;99.90;;;;;;6222712;22;20432;-77
2022/06/26 02:35:55;;;;;;;19.03;17.73;;;23.40;99.90;;;;;;6222756;23;20439;-88
2022/06/26 02:38:23;;;;;;;19.50;18.20;;;23.40;99.90;;;;;;6222438;23;20491;-78
2022/06/26 02:40:50;;;;;;;20.27;18.80;;;23.40;99.90;;;;;;6220766;23;20462;-88
2022/06/26 02:43:18;;;;;;;20.60;19.20;;;23.40;99.90;;;;;;6217761;23;20521;-78
2022/06/26 02:45:46;;;;;;;20.23;18.90;;;23.40;99.90;;;;;;6218736;23;20440;-79
2022/06/26 02:48:14;;;;;;;22.63;20.93;;;23.40;99.90;;;;;;6216233;23;20431;-78
2022/06/26 02:50:42;;;;;;;21.17;19.67;;;23.40;99.90;;;;;;6219514;23;20443;-88
2022/06/26 02:53:12;;;;;;;24.63;22.73;;;23.40;99.90;;;;;;6219119;23;20511;-78
2022/06/26 02:55:39;;;;;;;22.03;20.43;;;23.30;99.90;;;;;;6216862;23;20424;-78
2022/06/26 02:58:06;;;;;;;22.40;20.80;;;23.30;99.90;;;;;;6217002;23;20428;-79
2022/06/26 03:00:33;;;;;;;24.50;22.77;;;23.30;99.90;;;;;;6218607;23;20440;-79
2022/06/26 03:03:02;;;;;;;25.07;23.30;;;23.30;99.90;;;;;;6216798;23;20431;-78
2022/06/26 03:05:31;;;;;;;24.10;22.40;;;23.30;99.90;;;;;;6218020;23;20911;-88
2022/06/26 03:07:59;;;;;;;21.87;20.37;;;23.30;99.90;;;;;;6217763;23;20420;-88
2022/06/26 03:10:29;;;;;;;21.93;20.43;;;23.30;99.90;;;;;;6220060;23;20432;-90
2022/06/26 03:12:57;;;;;;;23.33;21.70;;;23.30;99.90;;;;;;6218592;23;20431;-89
2022/06/26 03:15:24;;;;;;;21.47;20.00;;;23.30;99.90;;;;;;6217722;23;20436;-79
2022/06/26 03:17:51;;;;;;;20.83;19.40;;;23.30;99.90;;;;;;6205033;23;20484;-90
2022/06/26 03:20:24;;;;;;;20.17;18.77;;;23.30;99.90;;;;;;6218825;23;20428;-89
2022/06/26 03:22:52;;;;;;;22.63;21.03;;;23.30;99.90;;;;;;6218312;23;20497;-79
2022/06/26 03:25:22;;;;;;;22.07;20.47;;;23.30;99.90;;;;;;6217073;23;20640;-89
2022/06/26 03:28:50;;;;;;;;;;;;;;;;;;;;;
2022/06/26 03:31:19;;;;;;;21.87;20.27;;;23.40;99.90;;;;;;6211900;23;20442;-89
2022/06/26 03:33:46;;;;;;;21.83;20.23;;;23.40;99.90;;;;;;6220795;23;20423;-89
2022/06/26 03:36:14;;;;;;;25.77;23.93;;;23.40;99.90;;;;;;6210016;23;20947;-78
2022/06/26 03:38:49;;;;;;;23.70;22.10;;;23.40;99.90;;;;;;6214975;23;20507;-89
2022/06/26 03:41:22;;;;;;;25.30;23.40;;;23.40;99.90;;;;;;6218512;23;20486;-78
2022/06/26 03:43:49;;;;;;;23.97;22.13;;;23.50;99.90;;;;;;6215202;23;20431;-89
2022/06/26 03:46:17;;;;;;;25.80;24.00;;;23.50;99.90;;;;;;6218894;23;20498;-88
2022/06/26 03:48:44;;;;;;;26.20;24.23;;;23.50;99.90;;;;;;6186554;23;20884;-88
2022/06/26 03:51:23;;;;;;;22.63;21.03;;;23.50;99.90;;;;;;6218225;23;20535;-91
2022/06/26 03:53:51;;;;;;;22.43;20.83;;;23.60;99.90;;;;;;6218868;23;20432;-89
2022/06/26 03:56:22;;;;;;;21.83;20.33;;;23.60;99.90;;;;;;6196772;23;20432;-79
2022/06/26 03:58:50;;;;;;;25.20;23.40;;;23.60;99.90;;;;;;6212415;23;20470;-89
2022/06/26 04:01:18;;;;;;;22.53;20.83;;;23.60;99.90;;;;;;6218459;23;20930;-89
2022/06/26 04:03:47;;;;;;;23.10;21.50;;;23.70;99.90;;;;;;6217856;23;20432;-89
2022/06/26 04:06:14;;;;;;;22.03;20.60;;;23.80;99.90;;;;;;6217366;23;20523;-79
2022/06/26 04:08:42;;;;;;;23.73;22.17;;;23.80;99.90;;;;;;6215380;23;20915;-89
2022/06/26 04:11:14;;;;;;;21.30;19.70;;;23.90;99.90;;;;;;6217567;23;20461;-79
2022/06/26 04:13:42;;;;;;;26.80;24.80;;;23.90;99.90;;;;;;6215784;23;20440;-78
2022/06/26 04:16:09;;;;;;;28.70;26.50;;;23.90;99.90;;;;;;6214712;23;20900;-78
2022/06/26 04:18:36;;;;;;;22.50;20.90;;;24.00;99.90;;;;;;6202237;23;20436;-88
2022/06/26 04:21:11;;;;;;;24.30;22.43;;;24.10;99.90;;;;;;6202063;23;20432;-88
2022/06/26 04:23:41;;;;;;;20.30;18.80;;;24.20;99.90;;;;;;6200206;23;20915;-78
2022/06/26 04:26:10;;;;;;;21.03;19.57;;;24.20;99.90;;;;;;6198920;23;20440;-78
2022/06/26 04:28:37;;;;;;;20.87;19.37;;;24.30;99.90;;;;;;6215004;23;20428;-79
2022/06/26 04:31:04;;;;;;;19.37;18.00;;;24.30;99.90;;;;;;6215112;23;20439;-78
2022/06/26 04:33:32;;;;;;;25.13;23.30;;;24.40;99.90;;;;;;6216396;23;20440;-78
2022/06/26 04:36:49;;;;;;;;;;;;;;;;;;;;;
2022/06/26 04:39:17;;;;;;;20.03;18.63;;;24.50;99.90;;;;;;6216221;23;20511;-78
2022/06/26 04:41:47;;;;;;;19.67;18.27;;;24.50;99.90;;;;;;6215933;23;20507;-78
2022/06/26 04:44:15;;;;;;;20.23;18.77;;;24.60;99.90;;;;;;6216041;23;20432;-88
2022/06/26 04:46:43;;;;;;;19.90;18.40;;;24.60;99.90;;;;;;6217097;23;20983;-87
2022/06/26 04:49:16;;;;;;;19.93;18.53;;;24.70;99.90;;;;;;6218421;23;20776;-87
2022/06/26 04:51:43;;;;;;;18.80;17.60;;;24.70;99.90;;;;;;6220156;23;20432;-87
2022/06/26 04:54:11;;;;;;;20.30;18.70;;;24.80;99.90;;;;;;6220665;23;20731;-79
2022/06/26 04:56:41;;;;;;;19.20;17.90;;;24.90;99.90;;;;;;6216266;23;20494;-86
2022/06/26 04:59:09;;;;;;;20.10;18.70;;;24.90;99.90;;;;;;6218015;23;20424;-79
2022/06/26 05:01:37;;;;;;;16.83;15.73;;;24.90;99.90;;;;;;6216012;23;20462;-79
2022/06/26 05:04:04;;;;;;;18.17;16.67;;;25.00;99.90;;;;;;6223955;23;20491;-88
2022/06/26 05:06:31;;;;;;;17.67;16.57;;;25.00;99.90;;;;;;6228700;23;20440;-87
2022/06/26 05:09:00;;;;;;;21.43;19.93;;;25.00;99.90;;;;;;6221943;23;20436;-77
2022/06/26 05:11:27;;;;;;;19.60;18.00;;;25.00;99.90;;;;;;6216011;23;20435;-78
2022/06/26 05:13:54;;;;;;;18.40;17.13;;;25.00;99.90;;;;;;6214443;23;20499;-89
2022/06/26 05:16:22;;;;;;;19.27;17.93;;;25.00;99.90;;;;;;6216222;23;20447;-89
2022/06/26 05:18:49;;;;;;;20.07;18.67;;;25.00;99.90;;;;;;6212646;23;20487;-89
2022/06/26 05:21:17;;;;;;;17.93;16.83;;;25.00;99.90;;;;;;6218776;23;20436;-79
2022/06/26 05:23:44;;;;;;;17.60;16.40;;;25.00;99.90;;;;;;6221737;23;20435;-87
2022/06/26 05:26:11;;;;;;;19.03;17.63;;;25.00;99.90;;;;;;6224370;23;20497;-80
2022/06/26 05:28:38;;;;;;;18.07;16.77;;;25.00;99.90;;;;;;6219437;23;20435;-79
2022/06/26 05:31:06;;;;;;;20.27;18.97;;;25.10;99.90;;;;;;6219190;23;20428;-88
2022/06/26 05:33:35;;;;;;;19.90;18.60;;;25.10;99.90;;;;;;6216561;23;20513;-88
2022/06/26 05:36:02;;;;;;;18.77;17.57;;;25.10;99.90;;;;;;6216981;23;20498;-87
2022/06/26 05:38:29;;;;;;;22.70;20.80;;;25.10;99.90;;;;;;6216805;23;20432;-78
2022/06/26 05:40:56;;;;;;;19.40;18.10;;;25.20;99.90;;;;;;6214781;23;20500;-78
2022/06/26 05:43:24;;;;;;;19.00;17.63;;;25.20;99.90;;;;;;6199081;23;20585;-89
2022/06/26 05:45:52;;;;;;;18.17;16.97;;;25.30;99.90;;;;;;6216694;23;20436;-89
2022/06/26 05:48:19;;;;;;;18.40;17.20;;;25.40;99.90;;;;;;6215969;23;20428;-78
2022/06/26 05:50:47;;;;;;;20.93;19.43;;;25.50;99.90;;;;;;6215943;23;20958;-89
2022/06/26 05:53:14;;;;;;;20.37;19.07;;;25.60;99.90;;;;;;6214633;23;20432;-80
2022/06/26 05:55:41;;;;;;;18.50;17.30;;;25.60;99.90;;;;;;6216011;23;20498;-78
2022/06/26 05:58:08;;;;;;;19.13;17.83;;;25.60;99.90;;;;;;6214489;23;21166;-77
2022/06/26 06:00:36;;;;;;;19.00;17.70;;;25.70;99.90;;;;;;6216474;23;20432;-90
2022/06/26 06:03:09;;;;;;;16.47;15.37;;;25.70;99.90;;;;;;6216443;23;20445;-79
2022/06/26 06:05:36;;;;;;;16.17;15.17;;;25.80;99.90;;;;;;6218101;23;20442;-78
2022/06/26 06:08:16;;;;;;;17.37;16.17;;;25.80;99.90;;;;;;6216682;23;20436;-88
2022/06/26 06:10:43;;;;;;;18.53;17.07;;;25.90;99.90;;;;;;6220330;23;20517;-88
2022/06/26 06:13:10;;;;;;;17.23;16.10;;;26.00;99.90;;;;;;6217436;23;20943;-88
2022/06/26 06:15:37;;;;;;;16.73;15.50;;;26.00;99.90;;;;;;6219429;23;20451;-79
2022/06/26 06:20:55;;;;;;;15.57;14.57;;;26.30;99.90;;;;;;6226486;23;20435;-88
2022/06/26 06:23:28;;;;;;;13.47;12.57;;;26.40;99.90;;;;;;6213880;23;20428;-88
2022/06/26 06:25:55;;;;;;;14.17;13.27;;;26.60;99.90;;;;;;6222196;23;20443;-79
2022/06/26 06:28:22;;;;;;;13.73;12.83;;;26.70;99.90;;;;;;6224665;23;20435;-78
2022/06/26 06:30:51;;;;;;;15.63;14.63;;;26.90;99.90;;;;;;6212154;23;20436;-88
2022/06/26 06:33:18;;;;;;;15.50;14.40;;;27.00;99.90;;;;;;6213955;23;20436;-78
2022/06/26 06:35:46;;;;;;;14.47;13.47;;;27.30;99.90;;;;;;6199653;23;20447;-88
2022/06/26 06:38:13;;;;;;;12.77;11.97;;;27.40;99.90;;;;;;6214872;23;20466;-87
2022/06/26 06:40:42;;;;;;;12.10;11.30;;;27.70;99.90;;;;;;6216204;23;20432;-79
2022/06/26 06:43:11;;;;;;;13.77;12.87;;;27.80;99.90;;;;;;6219134;23;20927;-80
2022/06/26 06:45:42;;;;;;;13.87;12.60;;;28.00;99.90;;;;;;6223375;23;20520;-87
2022/06/26 06:48:10;;;;;;;14.53;13.63;;;28.20;99.90;;;;;;6230475;23;20451;-79
2022/06/26 06:50:42;;;;;;;14.43;13.53;;;28.30;99.90;;;;;;6227305;23;20459;-88
2022/06/26 06:53:25;;;;;;;12.70;11.97;;;28.40;99.90;;;;;;6227978;23;20427;-86
2022/06/26 06:55:56;;;;;;;11.27;10.57;;;28.50;99.90;;;;;;6191281;23;20506;-87
2022/06/26 07:09:23;;;;;;;8.80;7.90;;;29.00;99.90;;;;;;6220568;23;20449;-87
2022/06/26 07:11:56;;;;;;;8.87;8.10;;;29.20;99.30;;;;;;6216036;23;20431;-89
2022/06/26 07:14:23;;;;;;;8.27;7.73;;;29.40;99.20;;;;;;6219687;23;20428;-89
2022/06/26 07:16:50;;;;;;;8.57;8.07;;;29.60;97.80;;;;;;6213243;23;20431;-79
2022/06/26 07:19:19;;;;;;;8.00;7.50;;;29.70;97.00;;;;;;6215029;23;20515;-79
2022/06/26 07:21:46;;;;;;;9.77;9.17;;;30.00;97.00;;;;;;6216164;23;20431;-78
2022/06/26 07:24:14;;;;;;;10.83;10.23;;;30.10;97.00;;;;;;6220189;23;20955;-87
2022/06/26 07:26:42;;;;;;;11.43;10.63;;;30.10;97.80;;;;;;6217742;23;20451;-78
2022/06/26 07:29:14;;;;;;;12.20;11.20;;;30.10;97.90;;;;;;6217279;23;20435;-79
2022/06/26 07:31:41;;;;;;;13.03;12.13;;;30.00;98.10;;;;;;6216057;23;20486;-78
2022/06/26 07:34:16;;;;;;;11.90;11.00;;;30.00;98.60;;;;;;6218575;23;20451;-88
2022/06/26 07:36:45;;;;;;;9.50;8.87;;;30.00;99.00;;;;;;6219769;23;20443;-88
2022/06/26 07:39:14;;;;;;;10.53;9.83;;;29.90;96.40;;;;;;6219860;23;20442;-88
2022/06/26 07:41:41;;;;;;;10.53;9.83;;;30.00;95.80;;;;;;6217324;23;20519;-79
2022/06/26 07:44:10;;;;;;;9.13;8.63;;;30.20;95.90;;;;;;6219629;23;20790;-87
2022/06/26 07:46:38;;;;;;;10.20;9.60;;;30.30;94.50;;;;;;6222297;23;20439;-78
2022/06/26 07:49:07;;;;;;;10.17;9.43;;;30.40;95.30;;;;;;6224383;23;20432;-88
2022/06/26 07:51:34;;;;;;;12.03;11.23;;;30.50;95.80;;;;;;6235875;23;20507;-84
2022/06/26 07:54:05;;;;;;;10.20;9.60;;;30.70;95.50;;;;;;6217245;23;20459;-86
2022/06/26 07:56:33;;;;;;;8.03;7.60;;;30.90;95.60;;;;;;6236960;23;20436;-89
2022/06/26 07:59:02;;;;;;;9.43;8.63;;;30.90;92.90;;;;;;6228053;23;20424;-89
2022/06/26 08:01:33;;;;;;;9.20;8.60;;;31.10;93.10;;;;;;6209008;23;20439;-80
2022/06/26 08:04:01;;;;;;;7.37;6.97;;;31.20;93.20;;;;;;6218020;23;20443;-89
2022/06/26 08:06:29;;;;;;;6.80;6.30;;;31.10;91.20;;;;;;6221622;23;20904;-88
2022/06/26 08:41:57;;;;;;;6.43;6.03;;;32.10;82.70;;;;;;6218956;23;20911;-79
2022/06/26 08:44:26;;;;;;;5.43;5.13;;;32.20;81.50;;;;;;6222514;23;20478;-79
2022/06/26 08:46:58;;;;;;;6.90;6.43;;;32.20;80.40;;;;;;6227686;23;20498;-78
2022/06/26 08:49:41;;;;;;;13.30;12.13;;;32.20;81.50;;;;;;6216779;23;20891;-78
2022/06/26 08:52:15;;;;;;;9.90;9.30;;;32.20;84.50;;;;;;6221533;23;20892;-78
2022/06/26 08:54:46;;;;;;;5.00;4.60;;;32.20;85.00;;;;;;6220751;23;20485;-79
2022/06/26 08:57:15;;;;;;;6.20;5.80;;;32.00;78.60;;;;;;6219512;23;20443;-78
2022/06/26 08:59:43;;;;;;;5.83;5.40;;;32.00;77.90;;;;;;6205459;23;20443;-80
2022/06/26 09:02:17;;;;;;;6.23;5.83;;;31.90;78.50;;;;;;6208002;23;20943;-80
2022/06/26 09:04:46;;;;;;;6.60;6.10;;;31.70;80.00;;;;;;6234723;23;20431;-89
2022/06/26 09:07:40;;;;;;;6.83;6.43;;;31.50;80.60;;;;;;6219394;23;20496;-88
2022/06/26 09:10:13;;;;;;;6.47;6.00;;;31.40;80.90;;;;;;6202116;23;20438;-79
2022/06/26 09:12:41;;;;;;;8.20;7.50;;;31.30;81.50;;;;;;6203603;23;20697;-79
2022/06/26 09:15:17;;;;;;;6.23;5.70;;;31.20;81.90;;;;;;6217714;23;20486;-79
2022/06/26 09:18:03;;;;;;;6.03;5.63;;;31.20;81.60;;;;;;6217671;23;20491;-87
2022/06/26 09:20:36;;;;;;;6.50;6.07;;;31.10;81.70;;;;;;6228966;23;20430;-87
2022/06/26 09:23:08;;;;;;;6.50;6.10;;;31.00;82.20;;;;;;6229747;23;20458;-87
2022/06/26 09:25:40;;;;;;;8.00;7.50;;;31.00;82.70;;;;;;6226264;23;20515;-87
2022/06/26 09:28:28;;;;;;;6.47;6.07;;;31.10;82.40;;;;;;6220308;23;20959;-79
2022/06/26 09:31:06;;;;;;;7.57;7.07;;;31.10;80.80;;;;;;6215135;23;20434;-80
2022/06/26 09:33:44;;;;;;;6.50;6.10;;;31.10;80.30;;;;;;6218873;23;20431;-87
2022/06/26 09:36:35;;;;;;;7.97;7.47;;;31.10;81.60;;;;;;6210580;23;20446;-88
2022/06/26 09:39:35;;;;;;;6.97;6.43;;;31.00;82.40;;;;;;6173518;23;20430;-88
2022/06/26 09:45:15;;;;;;;7.40;6.90;;;31.10;81.00;;;;;;6095802;23;20435;-80
2022/06/26 09:47:46;;;;;;;6.47;6.07;;;31.00;81.20;;;;;;6200914;23;20443;-80
2022/06/26 09:50:16;;;;;;;7.53;7.03;;;31.00;81.30;;;;;;6214338;23;20481;-81
2022/06/26 09:52:58;;;;;;;8.53;7.80;;;30.90;80.60;;;;;;6188652;23;20439;-80
2022/06/26 09:55:26;;;;;;;6.13;5.73;;;30.80;80.90;;;;;;6217414;23;20923;-80
2022/06/26 09:57:56;;;;;;;7.10;6.50;;;30.90;80.90;;;;;;6217166;23;20420;-80
2022/06/26 10:00:23;;;;;;;10.43;9.53;;;30.90;80.60;;;;;;6217291;23;20794;-80
2022/06/26 10:08:29;;;;;;;6.27;5.97;;;30.90;80.90;;;;;;6177213;23;20467;-79
2022/06/26 10:11:02;;;;;;;9.80;9.00;;;31.00;80.60;;;;;;6217252;23;20716;-88
2022/06/26 10:13:34;;;;;;;6.67;6.20;;;31.00;81.50;;;;;;6225904;23;20438;-88
2022/06/26 10:16:18;;;;;;;7.27;6.83;;;30.80;80.60;;;;;;6216684;23;20446;-80
2022/06/26 10:19:10;;;;;;;7.27;6.87;;;30.80;80.40;;;;;;6216143;23;20439;-80
2022/06/26 10:21:49;;;;;;;6.80;6.30;;;30.70;81.10;;;;;;6217134;23;20501;-79
2022/06/26 10:24:25;;;;;;;8.47;7.80;;;30.60;81.50;;;;;;6218947;23;20728;-87
2022/06/26 10:26:56;;;;;;;7.23;6.70;;;30.60;81.40;;;;;;6220140;23;20915;-87
2022/06/26 10:29:39;;;;;;;6.67;6.00;;;30.50;81.20;;;;;;6202845;23;20526;-80
2022/06/26 10:32:10;;;;;;;7.27;6.77;;;30.30;81.00;;;;;;6217880;23;20506;-79
2022/06/26 10:34:45;;;;;;;8.97;7.00;;;30.30;81.80;;;;;;6221377;23;20423;-79
2022/06/26 10:37:18;;;;;;;7.43;6.83;;;30.20;82.80;;;;;;6202247;23;20446;-80
2022/06/26 10:39:56;;;;;;;7.87;7.40;;;30.30;83.00;;;;;;6176128;23;20420;-79
2022/06/26 10:45:22;;;;;;;8.60;8.07;;;30.40;83.50;;;;;;6217377;23;20962;-79
2022/06/26 10:47:55;;;;;;;7.87;7.33;;;30.50;85.80;;;;;;6214802;23;20692;-79
2022/06/26 10:50:38;;;;;;;8.87;8.20;;;30.50;86.00;;;;;;6216723;23;20788;-79
2022/06/26 10:53:32;;;;;;;8.53;7.93;;;30.60;85.30;;;;;;6216707;23;20462;-80
2022/06/26 10:56:10;;;;;;;7.30;6.80;;;30.60;84.60;;;;;;6216889;23;20794;-80
2022/06/26 10:58:53;;;;;;;6.40;6.07;;;30.60;82.60;;;;;;6216377;23;20427;-80
2022/06/26 11:01:26;;;;;;;7.50;7.10;;;30.70;82.80;;;;;;6215549;23;20436;-80
2022/06/26 11:04:01;;;;;;;8.30;7.60;;;30.70;82.30;;;;;;6199424;23;20431;-88
2022/06/26 11:06:36;;;;;;;7.60;7.10;;;30.80;82.40;;;;;;6216525;23;20442;-88
2022/06/26 11:09:11;;;;;;;6.63;6.20;;;30.80;81.50;;;;;;6217365;23;20460;-88
2022/06/26 11:11:47;;;;;;;7.63;7.13;;;30.90;81.60;;;;;;6217113;23;20793;-88
2022/06/26 11:14:18;;;;;;;7.27;6.80;;;30.90;81.00;;;;;;6215123;23;20428;-82
2022/06/26 11:16:49;;;;;;;5.97;5.37;;;30.90;80.00;;;;;;6217818;23;20466;-78
2022/06/26 11:19:27;;;;;;;6.27;5.93;;;30.80;79.50;;;;;;6220431;23;20455;-87
2022/06/26 11:22:08;;;;;;;6.90;6.50;;;30.80;79.40;;;;;;6217398;23;20703;-86
2022/06/26 11:24:38;;;;;;;7.23;6.73;;;30.80;79.10;;;;;;6217180;23;20915;-87
2022/06/26 11:27:10;;;;;;;5.80;5.40;;;30.70;78.80;;;;;;6216469;23;20436;-79
2022/06/26 11:29:38;;;;;;;5.80;5.40;;;30.80;79.00;;;;;;6215800;23;20507;-79
2022/06/26 11:32:14;;;;;;;6.53;6.10;;;30.90;78.60;;;;;;6212916;23;20498;-79
2022/06/26 11:34:49;;;;;;;7.00;6.50;;;30.90;78.80;;;;;;6215943;23;20442;-79
2022/06/26 11:37:21;;;;;;;8.20;7.60;;;30.90;78.80;;;;;;6222150;23;20439;-79
2022/06/26 11:39:50;;;;;;;6.50;6.00;;;30.90;80.20;;;;;;6211167;23;20447;-87
2022/06/26 11:42:21;;;;;;;6.80;6.40;;;30.80;80.60;;;;;;6227153;23;20432;-86
2022/06/26 11:44:49;;;;;;;6.93;6.53;;;30.90;80.00;;;;;;6223483;23;20447;-79
2022/06/26 11:47:25;;;;;;;6.37;5.97;;;30.90;80.10;;;;;;6212038;23;20443;-88
2022/06/26 11:49:54;;;;;;;6.07;5.73;;;30.90;78.30;;;;;;6208460;23;20496;-86
2022/06/26 11:52:27;;;;;;;6.13;5.73;;;31.00;79.10;;;;;;6196638;23;20741;-89
2022/06/26 11:55:00;;;;;;;6.63;6.17;;;31.00;77.90;;;;;;6207323;23;20473;-87
2022/06/26 11:57:35;;;;;;;6.20;5.90;;;31.00;78.60;;;;;;6195636;23;20754;-87
2022/06/26 12:00:16;;;;;;;6.60;6.20;;;31.00;78.50;;;;;;6198334;23;20462;-87
2022/06/26 12:02:55;;;;;;;7.13;6.63;;;31.10;79.10;;;;;;6218911;23;20448;-88
2022/06/26 12:05:56;;;;;;;7.20;6.70;;;31.10;79.10;;;;;;6183068;23;26131;-87
2022/06/26 12:08:23;;;;;;;6.33;5.93;;;31.10;79.50;;;;;;6192798;23;20439;-88
2022/06/26 12:10:55;;;;;;;6.40;6.00;;;31.10;77.10;;;;;;6215673;23;20512;-87
2022/06/26 12:13:29;;;;;;;6.90;6.50;;;31.20;77.50;;;;;;6201713;23;20448;-88
2022/06/26 12:16:03;;;;;;;5.37;5.10;;;31.30;76.70;;;;;;6193835;23;20805;-80
2022/06/26 12:18:30;;;;;;;5.97;5.57;;;31.30;75.00;;;;;;6193633;23;20494;-80
2022/06/26 12:20:57;;;;;;;7.70;7.13;;;31.30;74.60;;;;;;6191420;23;20493;-88
2022/06/26 12:23:36;;;;;;;7.30;6.87;;;31.40;76.00;;;;;;6196792;23;20433;-88
2022/06/26 12:26:09;;;;;;;9.30;8.67;;;31.40;76.40;;;;;;6193974;23;20447;-80
2022/06/26 12:28:48;;;;;;;9.93;9.13;;;31.40;76.90;;;;;;6206312;23;20428;-86
2022/06/26 12:34:19;;;;;;;6.83;6.43;;;31.50;76.50;;;;;;6202950;23;20439;-88
2022/06/26 12:36:50;;;;;;;8.63;7.90;;;31.50;76.90;;;;;;6205764;23;20440;-87
2022/06/26 12:39:22;;;;;;;6.73;6.43;;;31.50;77.50;;;;;;6206390;23;20440;-87
2022/06/26 12:41:50;;;;;;;6.97;6.47;;;31.50;76.30;;;;;;6198836;23;20447;-87
2022/06/26 12:44:21;;;;;;;8.50;8.00;;;31.50;76.50;;;;;;6220050;23;20512;-87
2022/06/26 12:46:48;;;;;;;7.80;7.30;;;31.50;77.10;;;;;;6195593;23;20441;-77
2022/06/26 12:49:16;;;;;;;7.50;6.93;;;31.50;77.20;;;;;;6197699;23;20443;-80
2022/06/26 12:51:43;;;;;;;6.80;6.40;;;31.50;76.70;;;;;;6202335;23;20741;-79
2022/06/26 12:54:13;;;;;;;6.73;6.33;;;31.50;76.60;;;;;;6206129;23;20490;-81
2022/06/26 12:56:42;;;;;;;6.30;6.00;;;31.40;73.50;;;;;;6182039;23;20447;-78
2022/06/26 12:59:10;;;;;;;7.13;6.53;;;31.30;73.00;;;;;;6205676;23;20759;-77
2022/06/26 13:01:38;;;;;;;6.33;6.03;;;31.30;73.00;;;;;;6186583;23;20427;-79
2022/06/26 13:04:06;;;;;;;6.10;5.80;;;31.30;73.00;;;;;;6185716;23;20459;-78
2022/06/26 13:06:32;;;;;;;6.77;6.37;;;31.30;72.20;;;;;;6185699;23;20437;-79
2022/06/26 13:09:00;;;;;;;6.70;6.30;;;31.30;72.30;;;;;;6186431;23;20433;-87
2022/06/26 13:11:27;;;;;;;7.10;6.70;;;31.40;73.10;;;;;;6185818;23;20784;-88
2022/06/26 13:13:55;;;;;;;8.03;7.53;;;31.40;73.90;;;;;;6188229;23;20433;-86
2022/06/26 13:16:22;;;;;;;6.70;6.20;;;31.30;74.10;;;;;;6187492;23;20572;-86
2022/06/26 13:18:51;;;;;;;6.50;6.13;;;31.30;73.50;;;;;;6190143;23;20428;-86
2022/06/26 13:21:19;;;;;;;7.03;6.63;;;31.30;73.30;;;;;;6186949;23;20443;-88
2022/06/26 13:23:49;;;;;;;7.80;7.40;;;31.30;73.60;;;;;;6190680;23;20440;-86
2022/06/26 13:26:17;;;;;;;7.30;6.90;;;31.20;73.10;;;;;;6186350;23;20441;-88
2022/06/26 13:28:47;;;;;;;8.97;8.37;;;31.20;72.90;;;;;;6189320;23;20433;-86
2022/06/26 13:31:17;;;;;;;7.23;6.83;;;31.10;72.80;;;;;;6187434;23;20429;-88
2022/06/26 13:33:45;;;;;;;7.63;6.97;;;31.10;73.20;;;;;;6177579;23;20436;-86
2022/06/26 13:36:13;;;;;;;7.67;7.17;;;31.20;74.00;;;;;;6205984;23;20440;-87
2022/06/26 13:38:43;;;;;;;6.07;5.67;;;31.20;74.30;;;;;;6186555;23;20503;-86
2022/06/26 13:41:10;;;;;;;5.50;5.20;;;31.10;71.10;;;;;;6176697;23;20508;-88
2022/06/26 13:43:37;;;;;;;5.37;5.07;;;31.10;70.60;;;;;;6176101;23;20972;-87
2022/06/26 13:46:04;;;;;;;5.77;5.37;;;31.10;70.30;;;;;;6188739;23;20967;-86
2022/06/26 13:48:33;;;;;;;6.13;5.73;;;31.10;69.70;;;;;;6185532;23;20436;-87
2022/06/26 13:51:31;;;;;;;5.73;5.33;;;31.10;70.20;;;;;;6187818;23;20978;-87
2022/06/26 13:53:59;;;;;;;6.27;5.90;;;31.10;70.10;;;;;;6189998;23;20502;-86
2022/06/26 13:56:26;;;;;;;6.63;6.17;;;31.10;70.30;;;;;;6186557;23;20433;-78
2022/06/26 13:59:04;;;;;;;7.43;6.93;;;31.00;70.40;;;;;;6185485;23;20528;-80